Jefferson, Mississippi
Current Conditions -  °F | °C
As of 10:53 PM on Friday 31 Oct 2014 (Local Time) from KGWO Reporting Station
Clear Clear  
Wind Chill:   Ceiling: Unl
Heat Index:   Visibility: 10mi
Dew Point: -3°   Wind: 7mph
Humidity: 55%   Direction: 10°N
Pressure: 30.32"   Gusts: NA
Location:  33.5322°N, 89.9872°W
Report Text: KGWO 010353Z AUTO 01006KT 10SM CLR 05/M03 A3032 RMK AO2 SLP266 T00501033 TSNO $
Loading
Personal Weather Stations






























Interactive Weather Map
Tropical Storm Tracking
New forecast layout! Learn more

10-Day Weather Forecast

Advertisements
Track Severe Weather on mobile